createdAt,value
2017-06-16T00:00:24.970Z,19.28
2017-06-16T00:01:34.014Z,19.25
2017-06-16T00:02:42.972Z,19.32
2017-06-16T00:03:51.978Z,19.28
2017-06-16T00:05:00.931Z,19.32
2017-06-16T00:06:09.888Z,19.32
2017-06-16T00:07:18.843Z,19.28
2017-06-16T00:08:27.799Z,19.33
2017-06-16T00:09:36.767Z,19.28
2017-06-16T00:10:45.723Z,19.32
2017-06-16T00:11:55.021Z,19.39
2017-06-16T00:13:03.976Z,19.26
2017-06-16T00:14:12.937Z,19.28
2017-06-16T00:15:21.941Z,19.28
2017-06-16T00:16:30.947Z,19.28
2017-06-16T00:17:39.909Z,19.32
2017-06-16T00:18:48.865Z,19.31
2017-06-16T00:19:57.819Z,19.33
2017-06-16T00:21:06.775Z,19.37
2017-06-16T00:22:15.734Z,19.37
2017-06-16T00:23:24.687Z,19.37
2017-06-16T00:24:33.642Z,19.37
2017-06-16T00:25:42.599Z,19.31
2017-06-16T00:26:51.607Z,19.37
2017-06-16T00:28:00.565Z,19.39
2017-06-16T00:29:09.521Z,19.39
2017-06-16T00:30:18.472Z,19.39
2017-06-16T00:31:27.467Z,19.36
2017-06-16T00:32:36.515Z,19.29
2017-06-16T00:33:45.478Z,19.37
2017-06-16T00:34:54.775Z,19.33
2017-06-16T00:36:03.818Z,19.36
2017-06-16T00:37:12.781Z,19.37
2017-06-16T00:38:21.736Z,19.44
2017-06-16T00:39:30.692Z,19.4
2017-06-16T00:40:39.648Z,19.39
2017-06-16T00:41:48.606Z,19.44
2017-06-16T00:42:57.561Z,19.39
2017-06-16T00:44:06.564Z,19.48
2017-06-16T00:45:15.521Z,19.44
2017-06-16T00:46:24.477Z,19.46
2017-06-16T00:47:33.438Z,19.37
2017-06-16T00:48:42.397Z,19.39
2017-06-16T00:49:51.411Z,19.37
2017-06-16T00:51:00.362Z,19.31
2017-06-16T00:52:09.317Z,19.36
2017-06-16T00:53:18.358Z,19.29
2017-06-16T00:54:27.314Z,19.33
2017-06-16T00:55:36.322Z,19.28
2017-06-16T00:56:45.275Z,19.33
2017-06-16T00:57:54.237Z,19.29
2017-06-16T00:59:03.190Z,19.33
2017-06-16T01:00:12.189Z,19.29
2017-06-16T01:01:21.205Z,19.29
2017-06-16T01:02:30.166Z,19.19
2017-06-16T01:03:39.125Z,19.08
2017-06-16T01:04:48.081Z,19.02
2017-06-16T01:05:57.068Z,18.94
2017-06-16T01:07:06.171Z,18.76
2017-06-16T01:08:15.127Z,18.66
2017-06-16T01:09:24.081Z,18.8
2017-06-16T01:10:33.128Z,18.8
2017-06-16T01:11:42.086Z,18.78
2017-06-16T01:12:51.094Z,18.81
2017-06-16T01:14:00.055Z,18.82
2017-06-16T01:15:09.012Z,18.81
2017-06-16T01:16:18.003Z,18.72
2017-06-16T01:17:27.042Z,18.75
2017-06-16T01:18:36.043Z,18.72
2017-06-16T01:19:45.008Z,18.69
2017-06-16T01:20:53.966Z,18.66
2017-06-16T01:22:03.027Z,18.65
2017-06-16T01:23:11.981Z,18.67
2017-06-16T01:24:20.989Z,18.8
2017-06-16T01:25:29.946Z,18.78
2017-06-16T01:26:38.911Z,18.67
2017-06-16T01:27:47.869Z,18.69
2017-06-16T01:28:57.161Z,18.66
2017-06-16T01:30:06.170Z,18.75
2017-06-16T01:31:15.129Z,18.66
2017-06-16T01:32:24.084Z,18.67
2017-06-16T01:33:33.038Z,18.7
2017-06-16T01:34:42.001Z,18.8
2017-06-16T01:35:51.010Z,18.67
2017-06-16T01:36:59.968Z,18.69
2017-06-16T01:38:08.925Z,18.67
2017-06-16T01:39:17.883Z,18.67
2017-06-16T01:40:26.843Z,18.66
2017-06-16T01:41:36.174Z,18.7
2017-06-16T01:42:45.130Z,18.72
2017-06-16T01:43:54.097Z,18.69
2017-06-16T01:45:03.088Z,18.72
2017-06-16T01:46:12.055Z,18.65
2017-06-16T01:47:21.013Z,18.7
2017-06-16T01:48:29.970Z,18.72
2017-06-16T01:49:38.926Z,18.69
2017-06-16T01:50:47.884Z,18.65
2017-06-16T01:51:57.181Z,18.54
2017-06-16T01:53:06.192Z,18.66
2017-06-16T01:54:15.148Z,18.66
2017-06-16T01:55:24.105Z,18.65
2017-06-16T01:56:33.060Z,18.58
2017-06-16T01:57:42.012Z,18.58
2017-06-16T01:58:50.965Z,18.6
2017-06-16T01:59:59.922Z,18.55
2017-06-16T02:01:08.895Z,18.58
2017-06-16T02:02:17.845Z,18.52
2017-06-16T02:03:26.801Z,18.54
2017-06-16T02:04:35.755Z,18.52
2017-06-16T02:05:44.719Z,18.41
2017-06-16T02:06:53.678Z,18.45
2017-06-16T02:08:02.632Z,18.41
2017-06-16T02:09:11.585Z,18.45
2017-06-16T02:10:20.629Z,18.42
2017-06-16T02:11:29.589Z,18.47
2017-06-16T02:12:38.544Z,18.39
2017-06-16T02:13:47.502Z,18.42
2017-06-16T02:14:56.462Z,18.36
2017-06-16T02:16:05.422Z,18.37
2017-06-16T02:17:14.382Z,18.37
2017-06-16T02:18:23.338Z,18.35
2017-06-16T02:19:32.294Z,18.37
2017-06-16T02:20:41.251Z,18.37
2017-06-16T02:21:50.258Z,18.32
2017-06-16T02:22:59.213Z,18.25
2017-06-16T02:24:08.169Z,18.27
2017-06-16T02:25:17.127Z,18.29
2017-06-16T02:26:26.078Z,18.29
2017-06-16T02:27:35.085Z,18.25
2017-06-16T02:28:44.043Z,18.27
2017-06-16T02:29:53.006Z,18.35
2017-06-16T02:31:01.965Z,18.41
2017-06-16T02:32:11.019Z,18.33
2017-06-16T02:33:20.346Z,18.39
2017-06-16T02:34:29.300Z,18.29
2017-06-16T02:35:38.255Z,18.45
2017-06-16T02:36:47.217Z,18.45
2017-06-16T02:37:56.173Z,18.48
2017-06-16T02:39:05.177Z,18.48
2017-06-16T02:40:14.135Z,18.45
2017-06-16T02:41:23.091Z,18.54
2017-06-16T02:42:32.047Z,18.45
2017-06-16T02:43:41.005Z,18.47
2017-06-16T02:44:50.335Z,18.39
2017-06-16T02:45:59.377Z,18.42
2017-06-16T02:47:08.332Z,18.48
2017-06-16T02:48:17.297Z,18.45
2017-06-16T02:49:26.256Z,18.52
2017-06-16T02:50:35.265Z,18.48
2017-06-16T02:51:44.220Z,18.45
2017-06-16T02:52:53.178Z,18.45
2017-06-16T02:54:02.131Z,18.45
2017-06-16T02:55:11.085Z,18.48
2017-06-16T02:56:20.214Z,18.5
2017-06-16T02:57:29.173Z,18.52
2017-06-16T02:58:38.129Z,18.54
2017-06-16T02:59:47.410Z,18.51
2017-06-16T03:00:56.408Z,18.51
2017-06-16T03:02:05.371Z,18.62
2017-06-16T03:03:14.331Z,18.55
2017-06-16T03:04:23.284Z,18.6
2017-06-16T03:05:32.242Z,18.63
2017-06-16T03:06:41.199Z,18.65
2017-06-16T03:07:50.206Z,18.69
2017-06-16T03:08:59.164Z,18.62
2017-06-16T03:10:08.115Z,18.62
2017-06-16T03:11:17.074Z,18.62
2017-06-16T03:12:26.114Z,18.63
2017-06-16T03:13:35.121Z,18.72
2017-06-16T03:14:44.075Z,18.7
2017-06-16T03:15:53.034Z,18.6
2017-06-16T03:17:01.993Z,18.67
2017-06-16T03:18:11.033Z,18.69
2017-06-16T03:19:20.038Z,18.63
2017-06-16T03:20:29.000Z,18.7
2017-06-16T03:21:38.042Z,18.6
2017-06-16T03:22:47.000Z,18.52
2017-06-16T03:23:56.285Z,18.55
2017-06-16T03:25:05.617Z,18.58
2017-06-16T03:26:14.574Z,18.63
2017-06-16T03:27:23.620Z,18.6
2017-06-16T03:28:32.584Z,18.62
2017-06-16T03:29:41.539Z,18.65
2017-06-16T03:30:50.548Z,18.63
2017-06-16T03:31:59.506Z,18.67
2017-06-16T03:33:08.461Z,18.7
2017-06-16T03:34:17.418Z,18.8
2017-06-16T03:35:26.374Z,18.8
2017-06-16T03:36:35.387Z,18.76
2017-06-16T03:37:45.602Z,18.72
2017-06-16T03:38:54.569Z,18.78
2017-06-16T03:40:03.522Z,18.78
2017-06-16T03:41:12.486Z,18.69
2017-06-16T03:42:21.445Z,18.87
2017-06-16T03:43:30.407Z,18.75
2017-06-16T03:44:39.362Z,18.81
2017-06-16T03:45:48.314Z,18.75
2017-06-16T03:46:57.271Z,18.76
2017-06-16T03:48:06.367Z,18.7
2017-06-16T03:49:15.325Z,18.51
2017-06-16T03:50:24.281Z,18.57
2017-06-16T03:51:33.236Z,18.57
2017-06-16T03:52:42.191Z,18.52
2017-06-16T03:53:51.288Z,18.58
2017-06-16T03:55:00.240Z,18.63
2017-06-16T03:56:09.191Z,18.69
2017-06-16T03:57:18.150Z,18.62
2017-06-16T03:58:27.429Z,18.72
2017-06-16T03:59:36.437Z,18.69
2017-06-16T04:00:45.391Z,18.76
2017-06-16T04:01:54.347Z,18.76
2017-06-16T04:03:03.311Z,18.8
2017-06-16T04:04:12.274Z,18.69
2017-06-16T04:05:21.298Z,18.69
2017-06-16T04:06:30.255Z,18.65
2017-06-16T04:07:39.209Z,18.55
2017-06-16T04:08:48.165Z,18.52
2017-06-16T04:09:57.121Z,18.51
2017-06-16T04:11:06.133Z,18.52
2017-06-16T04:12:15.097Z,18.51
2017-06-16T04:13:24.054Z,18.6
2017-06-16T04:14:33.017Z,18.52
2017-06-16T04:15:42.006Z,18.6
2017-06-16T04:16:50.964Z,18.54
2017-06-16T04:17:59.920Z,18.6
2017-06-16T04:19:08.918Z,18.58
2017-06-16T04:20:17.876Z,18.62
2017-06-16T04:21:26.833Z,18.66
2017-06-16T04:22:35.933Z,18.63
2017-06-16T04:23:44.972Z,18.54
2017-06-16T04:24:53.931Z,18.62
2017-06-16T04:26:02.887Z,18.6
2017-06-16T04:27:11.842Z,18.57
2017-06-16T04:28:20.936Z,18.42
2017-06-16T04:29:29.892Z,18.44
2017-06-16T04:30:38.846Z,18.48
2017-06-16T04:31:47.799Z,18.42
2017-06-16T04:32:57.177Z,18.51
2017-06-16T04:34:06.133Z,18.58
2017-06-16T04:35:15.093Z,18.52
2017-06-16T04:36:24.048Z,18.52
2017-06-16T04:37:33.006Z,18.63
2017-06-16T04:38:41.963Z,18.63
2017-06-16T04:39:50.972Z,18.62
2017-06-16T04:41:00.012Z,18.63
2017-06-16T04:42:08.970Z,18.62
2017-06-16T04:43:17.926Z,18.57
2017-06-16T04:44:27.009Z,18.6
2017-06-16T04:45:36.018Z,18.65
2017-06-16T04:46:44.977Z,18.62
2017-06-16T04:47:53.962Z,18.63
2017-06-16T04:49:02.920Z,18.65
2017-06-16T04:50:11.878Z,18.54
2017-06-16T04:51:20.884Z,18.65
2017-06-16T04:52:29.839Z,18.63
2017-06-16T04:53:38.798Z,18.73
2017-06-16T04:54:47.759Z,18.7
2017-06-16T04:55:56.716Z,18.69
2017-06-16T04:57:05.723Z,18.65
2017-06-16T04:58:14.678Z,18.66
2017-06-16T04:59:23.634Z,18.66
2017-06-16T05:00:32.592Z,18.67
2017-06-16T05:01:41.559Z,18.58
2017-06-16T05:02:50.564Z,18.66
2017-06-16T05:03:59.526Z,18.63
2017-06-16T05:05:08.486Z,18.67
2017-06-16T05:06:17.852Z,18.63
2017-06-16T05:07:26.829Z,18.66
2017-06-16T05:08:35.855Z,18.7
2017-06-16T05:09:44.957Z,18.63
2017-06-16T05:10:53.927Z,18.75
2017-06-16T05:12:02.884Z,18.76
2017-06-16T05:13:12.440Z,18.84
2017-06-16T05:14:21.398Z,18.82
2017-06-16T05:15:30.423Z,18.76
2017-06-16T05:16:39.430Z,18.75
2017-06-16T05:17:48.663Z,18.67
2017-06-16T05:18:57.644Z,18.75
2017-06-16T05:20:06.601Z,18.66
2017-06-16T05:21:15.621Z,18.66
2017-06-16T05:22:24.584Z,18.63
2017-06-16T05:23:33.542Z,18.62
2017-06-16T05:24:42.579Z,18.6
2017-06-16T05:25:51.538Z,18.63
2017-06-16T05:27:00.494Z,18.66
2017-06-16T05:28:09.452Z,18.66
2017-06-16T05:29:18.550Z,18.6
2017-06-16T05:30:27.619Z,18.63
2017-06-16T05:31:37.113Z,18.57
2017-06-16T05:32:46.079Z,18.7
2017-06-16T05:33:55.061Z,18.6
2017-06-16T05:35:04.027Z,18.55
2017-06-16T05:36:12.986Z,18.58
2017-06-16T05:37:22.029Z,18.58
2017-06-16T05:38:31.019Z,18.65
2017-06-16T05:39:39.976Z,18.66
2017-06-16T05:40:48.939Z,18.72
2017-06-16T05:41:57.896Z,18.65
2017-06-16T05:43:06.888Z,18.6
2017-06-16T05:44:15.845Z,18.55
2017-06-16T05:45:24.803Z,18.67
2017-06-16T05:46:33.853Z,18.65
2017-06-16T05:47:42.941Z,18.8
2017-06-16T05:48:51.993Z,18.8
2017-06-16T05:50:01.104Z,18.76
2017-06-16T05:51:10.158Z,18.87
2017-06-16T05:52:19.113Z,18.85
2017-06-16T05:53:28.304Z,18.91
2017-06-16T05:54:37.399Z,19.04
2017-06-16T05:55:46.619Z,19.14
2017-06-16T05:56:55.640Z,19.16
2017-06-16T05:58:04.597Z,19.19
2017-06-16T05:59:13.553Z,19.1
2017-06-16T06:00:22.562Z,19.08
2017-06-16T06:01:31.516Z,19.11
2017-06-16T06:02:40.562Z,19.28
2017-06-16T06:03:49.515Z,19.25
2017-06-16T06:04:58.650Z,19.18
2017-06-16T06:06:07.605Z,19.21
2017-06-16T06:07:16.559Z,19.1
2017-06-16T06:08:25.554Z,18.99
2017-06-16T06:09:34.514Z,18.99
2017-06-16T06:10:43.477Z,18.88
2017-06-16T06:11:52.485Z,18.85
2017-06-16T06:13:01.443Z,18.84
2017-06-16T06:14:10.394Z,18.76
2017-06-16T06:15:19.348Z,18.9
2017-06-16T06:16:28.306Z,18.91
2017-06-16T06:17:37.262Z,18.92
2017-06-16T06:18:46.218Z,18.99
2017-06-16T06:19:55.180Z,19.07
2017-06-16T06:21:04.136Z,19.06
2017-06-16T06:22:13.094Z,19.02
2017-06-16T06:23:22.297Z,19.07
2017-06-16T06:24:31.350Z,19.04
2017-06-16T06:25:40.306Z,18.95
2017-06-16T06:26:49.622Z,18.99
2017-06-16T06:27:58.584Z,18.99
2017-06-16T06:29:07.548Z,19.06
2017-06-16T06:30:16.504Z,18.92
2017-06-16T06:31:25.795Z,18.91
2017-06-16T06:32:34.843Z,18.92
2017-06-16T06:33:43.800Z,18.91
2017-06-16T06:34:52.806Z,18.92
2017-06-16T06:36:01.766Z,18.88
2017-06-16T06:37:11.045Z,18.76
2017-06-16T06:38:19.998Z,18.84
2017-06-16T06:39:28.959Z,18.81
2017-06-16T06:40:38.004Z,18.75
2017-06-16T06:41:46.964Z,18.76
2017-06-16T06:42:55.966Z,18.73
2017-06-16T06:44:04.923Z,18.67
2017-06-16T06:45:13.876Z,18.72
2017-06-16T06:46:22.885Z,18.66
2017-06-16T06:47:31.840Z,18.69
2017-06-16T06:48:40.794Z,18.63
2017-06-16T06:49:49.752Z,18.51
2017-06-16T06:50:58.708Z,18.52
2017-06-16T06:52:07.712Z,18.41
2017-06-16T06:53:16.661Z,18.47
2017-06-16T06:54:25.615Z,18.32
2017-06-16T06:55:34.569Z,18.37
2017-06-16T06:56:43.519Z,18.36
2017-06-16T06:57:52.476Z,18.21
2017-06-16T06:59:01.433Z,18.11
2017-06-16T07:00:10.389Z,18.07
2017-06-16T07:01:19.347Z,17.92
2017-06-16T07:02:28.302Z,17.87
2017-06-16T07:03:37.341Z,17.74
2017-06-16T07:04:46.299Z,17.74
2017-06-16T07:05:55.256Z,17.56
2017-06-16T07:07:04.217Z,17.49
2017-06-16T07:08:13.179Z,17.38
2017-06-16T07:09:22.183Z,17.19
2017-06-16T07:10:31.136Z,17.18
2017-06-16T07:11:40.095Z,17.25
2017-06-16T07:12:49.053Z,17.19
2017-06-16T07:13:58.048Z,17.18
2017-06-16T07:15:07.049Z,17.22
2017-06-16T07:16:16.005Z,17.14
2017-06-16T07:17:24.964Z,17.07
2017-06-16T07:18:33.920Z,16.94
2017-06-16T07:19:42.876Z,16.97
2017-06-16T07:20:51.882Z,16.88
2017-06-16T07:22:00.925Z,16.81
2017-06-16T07:23:09.878Z,16.73
2017-06-16T07:24:18.927Z,16.7
2017-06-16T07:25:28.218Z,16.63
2017-06-16T07:26:37.174Z,16.64
2017-06-16T07:27:46.129Z,16.56
2017-06-16T07:28:55.089Z,16.73
2017-06-16T07:30:04.041Z,16.71
2017-06-16T07:31:12.992Z,16.75
2017-06-16T07:32:21.996Z,16.6
2017-06-16T07:33:30.953Z,16.5
2017-06-16T07:34:39.997Z,16.58
2017-06-16T07:35:48.956Z,16.52
2017-06-16T07:36:58.240Z,16.57
2017-06-16T07:38:07.245Z,16.58
2017-06-16T07:39:16.198Z,16.68
2017-06-16T07:40:25.151Z,16.75
2017-06-16T07:41:34.106Z,16.76
2017-06-16T07:42:43.104Z,16.66
2017-06-16T07:43:52.111Z,16.67
2017-06-16T07:45:01.068Z,16.66
2017-06-16T07:46:10.022Z,16.68
2017-06-16T07:47:18.979Z,16.67
2017-06-16T07:48:28.270Z,16.75
2017-06-16T07:49:37.225Z,16.75
2017-06-16T07:50:46.182Z,16.71
2017-06-16T07:51:55.139Z,16.71
2017-06-16T07:53:04.181Z,16.7
2017-06-16T07:54:13.227Z,16.82
2017-06-16T07:55:22.512Z,16.88
2017-06-16T07:56:31.805Z,16.91
2017-06-16T07:57:40.851Z,16.89
2017-06-16T07:58:49.807Z,16.89
2017-06-16T07:59:58.758Z,16.98
2017-06-16T08:01:07.710Z,17.03
2017-06-16T08:02:16.660Z,16.88
2017-06-16T08:03:25.612Z,16.98
2017-06-16T08:04:34.566Z,16.97
2017-06-16T08:05:43.517Z,17.01
2017-06-16T08:06:52.529Z,16.96
2017-06-16T08:08:01.485Z,17.04
2017-06-16T08:09:10.441Z,16.94
2017-06-16T08:10:19.395Z,16.97
2017-06-16T08:11:28.357Z,16.97
2017-06-16T08:12:37.317Z,16.93
2017-06-16T08:13:46.271Z,17
2017-06-16T08:14:55.229Z,17.01
2017-06-16T08:16:04.189Z,16.96
2017-06-16T08:17:13.143Z,17.15
2017-06-16T08:18:22.143Z,17.15
2017-06-16T08:19:31.186Z,17.06
2017-06-16T08:20:40.139Z,17.16
2017-06-16T08:21:49.092Z,17.18
2017-06-16T08:22:58.045Z,17.22
2017-06-16T08:24:07.051Z,17.12
2017-06-16T08:25:16.015Z,17.14
2017-06-16T08:26:24.969Z,17.12
2017-06-16T08:27:33.924Z,17.11
2017-06-16T08:28:42.878Z,17.15
2017-06-16T08:29:51.832Z,17.16
2017-06-16T08:31:00.792Z,17.12
2017-06-16T08:32:09.881Z,17.15
2017-06-16T08:33:18.832Z,17.14
2017-06-16T08:34:27.790Z,17.15
2017-06-16T08:35:36.776Z,17.22
2017-06-16T08:36:45.731Z,17.31
2017-06-16T08:37:54.686Z,17.36
2017-06-16T08:39:03.641Z,17.46
2017-06-16T08:40:12.694Z,17.48
2017-06-16T08:41:21.732Z,17.68
2017-06-16T08:42:30.687Z,17.7
2017-06-16T08:43:39.641Z,17.72
2017-06-16T08:44:48.603Z,17.75
2017-06-16T08:45:57.569Z,17.77
2017-06-16T08:47:06.521Z,17.75
2017-06-16T08:48:15.473Z,17.71
2017-06-16T08:49:24.425Z,17.86
2017-06-16T08:50:33.713Z,17.9
2017-06-16T08:51:42.758Z,17.92
2017-06-16T08:52:51.714Z,17.97
2017-06-16T08:54:00.673Z,18.03
2017-06-16T08:55:09.630Z,18.07
2017-06-16T08:56:18.589Z,17.99
2017-06-16T08:57:27.546Z,18.05
2017-06-16T08:58:36.555Z,18.03
2017-06-16T08:59:45.508Z,18.11
2017-06-16T09:00:54.462Z,18
2017-06-16T09:02:03.419Z,17.96
2017-06-16T09:03:12.375Z,17.84
2017-06-16T09:04:21.384Z,17.82
2017-06-16T09:05:30.336Z,17.96
2017-06-16T09:06:39.891Z,18.03
2017-06-16T09:07:48.938Z,18.12
2017-06-16T09:08:57.894Z,18.07
2017-06-16T09:10:06.849Z,18.03
2017-06-16T09:11:15.807Z,18.05
2017-06-16T09:12:24.761Z,18.07
2017-06-16T09:13:33.717Z,18.11
2017-06-16T09:14:42.670Z,18.08
2017-06-16T09:15:51.627Z,18.23
2017-06-16T09:17:00.583Z,18.3
2017-06-16T09:18:09.626Z,18.33
2017-06-16T09:19:18.592Z,18.41
2017-06-16T09:20:27.550Z,18.41
2017-06-16T09:21:36.512Z,18.51
2017-06-16T09:22:45.466Z,18.44
2017-06-16T09:23:54.425Z,18.57
2017-06-16T09:25:03.380Z,18.44
2017-06-16T09:26:12.335Z,18.41
2017-06-16T09:27:21.339Z,18.42
2017-06-16T09:28:30.304Z,18.48
2017-06-16T09:29:39.307Z,18.42
2017-06-16T09:30:48.267Z,18.47
2017-06-16T09:31:57.229Z,18.5
2017-06-16T09:33:06.237Z,18.44
2017-06-16T09:34:15.199Z,18.45
2017-06-16T09:35:24.157Z,18.51
2017-06-16T09:36:33.113Z,18.57
2017-06-16T09:37:42.063Z,18.55
2017-06-16T09:38:51.066Z,18.63
2017-06-16T09:40:00.024Z,18.52
2017-06-16T09:41:08.982Z,18.52
2017-06-16T09:42:17.937Z,18.45
2017-06-16T09:43:26.892Z,18.6
2017-06-16T09:44:35.851Z,18.6
2017-06-16T09:45:44.806Z,18.69
2017-06-16T09:46:53.761Z,18.63
2017-06-16T09:48:02.710Z,18.65
2017-06-16T09:49:11.757Z,18.7
2017-06-16T09:50:20.714Z,18.6
2017-06-16T09:51:29.762Z,18.66
2017-06-16T09:52:38.727Z,18.69
2017-06-16T09:53:47.680Z,18.76
2017-06-16T09:54:56.636Z,18.76
2017-06-16T09:56:05.600Z,18.84
2017-06-16T09:57:14.554Z,18.75
2017-06-16T09:58:23.522Z,18.8
2017-06-16T09:59:32.480Z,18.84
2017-06-16T10:00:41.436Z,18.91
2017-06-16T10:01:50.483Z,18.98
2017-06-16T10:02:59.524Z,18.99
2017-06-16T10:04:08.481Z,19.1
2017-06-16T10:05:17.442Z,19.19
2017-06-16T10:06:26.396Z,19.22
2017-06-16T10:07:35.679Z,19.28
2017-06-16T10:08:44.647Z,19.19
2017-06-16T10:09:53.604Z,19.23
2017-06-16T10:11:02.561Z,19.23
2017-06-16T10:12:11.517Z,19.29
2017-06-16T10:13:20.474Z,19.19
2017-06-16T10:14:29.430Z,19.11
2017-06-16T10:15:38.392Z,19.14
2017-06-16T10:16:47.350Z,19.14
2017-06-16T10:17:56.306Z,19.32
2017-06-16T10:19:05.348Z,19.4
2017-06-16T10:20:14.349Z,19.55
2017-06-16T10:21:23.647Z,19.51
2017-06-16T10:22:32.603Z,19.5
2017-06-16T10:23:41.554Z,19.54
2017-06-16T10:24:50.511Z,19.5
2017-06-16T10:25:59.466Z,19.41
2017-06-16T10:27:08.428Z,19.39
2017-06-16T10:28:17.386Z,19.46
2017-06-16T10:29:26.667Z,19.48
2017-06-16T10:30:35.630Z,19.54
2017-06-16T10:31:44.589Z,19.43
2017-06-16T10:32:53.548Z,19.4
2017-06-16T10:34:02.502Z,19.43
2017-06-16T10:35:11.460Z,19.63
2017-06-16T10:36:20.462Z,19.77
2017-06-16T10:37:29.418Z,19.92
2017-06-16T10:38:38.371Z,19.99
2017-06-16T10:39:47.325Z,20.01
2017-06-16T10:40:56.287Z,20.05
2017-06-16T10:42:05.617Z,20.06
2017-06-16T10:43:14.576Z,19.99
2017-06-16T10:44:23.538Z,20.02
2017-06-16T10:45:32.587Z,20.05
2017-06-16T10:46:41.547Z,20.17
2017-06-16T10:47:50.875Z,20.24
2017-06-16T10:48:59.834Z,20.5
2017-06-16T10:50:08.792Z,20.57
2017-06-16T10:51:18.071Z,20.72
2017-06-16T10:52:27.032Z,20.85
2017-06-16T10:53:36.041Z,20.82
2017-06-16T10:54:45.001Z,20.92
2017-06-16T10:55:53.962Z,20.89
2017-06-16T10:57:02.922Z,20.92
2017-06-16T10:58:11.882Z,21.13
2017-06-16T10:59:20.891Z,21.32
2017-06-16T11:00:29.852Z,21.44
2017-06-16T11:01:38.810Z,21.59
2017-06-16T11:02:47.769Z,21.42
2017-06-16T11:03:56.727Z,21.25
2017-06-16T11:05:05.734Z,21.09
2017-06-16T11:06:14.690Z,20.92
2017-06-16T11:07:23.653Z,21.03
2017-06-16T11:08:32.606Z,20.95
2017-06-16T11:09:41.572Z,20.8
2017-06-16T11:10:50.582Z,20.84
2017-06-16T11:11:59.540Z,20.69
2017-06-16T11:13:08.495Z,20.54
2017-06-16T11:14:17.449Z,20.52
2017-06-16T11:15:26.403Z,20.5
2017-06-16T11:16:35.410Z,20.41
2017-06-16T11:17:44.367Z,20.35
2017-06-16T11:18:53.328Z,20.2
2017-06-16T11:20:02.370Z,20.17
2017-06-16T11:21:11.330Z,20.14
2017-06-16T11:22:20.425Z,20.06
2017-06-16T11:23:29.471Z,19.96
2017-06-16T11:24:38.437Z,19.87
2017-06-16T11:25:47.392Z,19.84
2017-06-16T11:26:56.344Z,19.84
2017-06-16T11:28:05.349Z,19.92
2017-06-16T11:29:14.308Z,20.05
2017-06-16T11:30:23.608Z,20.05
2017-06-16T11:31:32.653Z,20.21
2017-06-16T11:32:41.612Z,20.41
2017-06-16T11:33:50.571Z,20.51
2017-06-16T11:34:59.529Z,20.41
2017-06-16T11:36:08.491Z,20.42
2017-06-16T11:37:17.451Z,20.18
2017-06-16T11:38:26.406Z,19.96
2017-06-16T11:39:35.416Z,19.56
2017-06-16T11:40:44.371Z,19.16
2017-06-16T11:41:53.329Z,18.88
2017-06-16T11:43:02.289Z,18.69
2017-06-16T11:44:11.248Z,18.55
2017-06-16T11:45:20.255Z,18.45
2017-06-16T11:46:29.216Z,18.45
2017-06-16T11:47:38.173Z,18.32
2017-06-16T11:48:47.214Z,18.3
2017-06-16T11:49:56.178Z,18.33
2017-06-16T11:51:05.188Z,18.42
2017-06-16T11:52:14.231Z,18.51
2017-06-16T11:53:23.551Z,18.58
2017-06-16T11:54:32.592Z,18.54
2017-06-16T11:55:41.545Z,18.54
2017-06-16T11:56:50.499Z,18.55
2017-06-16T11:57:59.456Z,18.54
2017-06-16T11:59:08.419Z,18.39
2017-06-16T12:00:17.373Z,18.47
2017-06-16T12:01:26.415Z,18.33
2017-06-16T12:02:35.506Z,18.36
2017-06-16T12:03:44.503Z,18.47
2017-06-16T12:04:53.461Z,18.42
2017-06-16T12:06:02.428Z,18.36
2017-06-16T12:07:11.386Z,18.23
2017-06-16T12:08:20.391Z,18.25
2017-06-16T12:09:29.347Z,18.18
2017-06-16T12:10:38.391Z,18.08
2017-06-16T12:11:47.352Z,18.08
2017-06-16T12:12:56.304Z,17.96
2017-06-16T12:14:05.264Z,17.9
2017-06-16T12:15:14.223Z,17.89
2017-06-16T12:16:23.185Z,17.92
2017-06-16T12:17:32.141Z,17.99
2017-06-16T12:18:41.098Z,18.02
2017-06-16T12:19:50.101Z,18.02
2017-06-16T12:20:59.058Z,17.99
2017-06-16T12:22:08.013Z,17.92
2017-06-16T12:23:16.966Z,17.96
2017-06-16T12:24:26.242Z,17.96
2017-06-16T12:25:35.281Z,17.89
2017-06-16T12:26:44.241Z,17.9
2017-06-16T12:27:53.191Z,17.9
2017-06-16T12:29:02.473Z,17.71
2017-06-16T12:30:11.429Z,17.66
2017-06-16T12:31:20.436Z,17.58
2017-06-16T12:32:29.395Z,17.46
2017-06-16T12:33:38.440Z,17.4
2017-06-16T12:34:47.402Z,17.36
2017-06-16T12:35:56.360Z,17.19
2017-06-16T12:37:05.365Z,17.14
2017-06-16T12:38:14.318Z,17.07
2017-06-16T12:39:23.279Z,17.03
2017-06-16T12:40:32.239Z,16.97
2017-06-16T12:41:41.200Z,16.97
2017-06-16T12:42:50.483Z,16.96
2017-06-16T12:43:59.440Z,16.89
2017-06-16T12:45:08.397Z,16.91
2017-06-16T12:46:17.357Z,16.86
2017-06-16T12:47:26.315Z,16.94
2017-06-16T12:48:35.319Z,16.98
2017-06-16T12:49:44.281Z,17.01
2017-06-16T12:50:53.234Z,16.98
2017-06-16T12:52:02.193Z,16.94
2017-06-16T12:53:11.153Z,16.88
2017-06-16T12:54:20.114Z,16.96
2017-06-16T12:55:29.069Z,16.94
2017-06-16T12:56:38.031Z,16.91
2017-06-16T12:57:46.989Z,16.98
2017-06-16T12:58:56.029Z,16.91
2017-06-16T13:00:05.071Z,17.11
2017-06-16T13:01:14.025Z,17.19
2017-06-16T13:02:22.978Z,17.25
2017-06-16T13:03:31.932Z,17.41
2017-06-16T13:04:40.890Z,17.46
2017-06-16T13:05:49.844Z,17.51
2017-06-16T13:06:58.798Z,17.49
2017-06-16T13:08:07.756Z,17.46
2017-06-16T13:09:16.711Z,17.58
2017-06-16T13:10:25.671Z,17.63
2017-06-16T13:11:34.625Z,17.77
2017-06-16T13:12:43.592Z,17.72
2017-06-16T13:13:52.558Z,17.64
2017-06-16T13:15:01.512Z,17.64
2017-06-16T13:16:10.472Z,17.64
2017-06-16T13:17:19.478Z,17.63
2017-06-16T13:18:28.535Z,17.49
2017-06-16T13:19:37.579Z,17.28
2017-06-16T13:20:46.532Z,17.28
2017-06-16T13:21:55.498Z,17.23
2017-06-16T13:23:04.505Z,17.16
2017-06-16T13:24:13.473Z,17.18
2017-06-16T13:25:22.431Z,17.11
2017-06-16T13:26:31.391Z,16.98
2017-06-16T13:27:40.377Z,17.03
2017-06-16T13:28:49.473Z,16.79
2017-06-16T13:29:58.429Z,16.7
2017-06-16T13:31:07.386Z,16.73
2017-06-16T13:32:16.345Z,16.53
2017-06-16T13:33:25.404Z,16.63
2017-06-16T13:34:34.362Z,16.49
2017-06-16T13:35:43.318Z,16.52
2017-06-16T13:36:52.274Z,16.57
2017-06-16T13:38:01.227Z,16.6
2017-06-16T13:39:10.183Z,16.61
2017-06-16T13:40:19.530Z,16.64
2017-06-16T13:41:28.485Z,16.56
2017-06-16T13:42:37.439Z,16.56
2017-06-16T13:43:46.396Z,16.58
2017-06-16T13:44:55.353Z,16.6
2017-06-16T13:46:04.358Z,16.52
2017-06-16T13:47:13.317Z,16.53
2017-06-16T13:48:22.358Z,16.71
2017-06-16T13:49:31.310Z,16.7
2017-06-16T13:50:40.259Z,16.73
2017-06-16T13:51:49.264Z,16.81
2017-06-16T13:52:58.225Z,16.83
2017-06-16T13:54:07.179Z,16.78
2017-06-16T13:55:16.216Z,16.79
2017-06-16T13:56:25.170Z,16.85
2017-06-16T13:57:34.173Z,16.85
2017-06-16T13:58:43.128Z,16.82
2017-06-16T13:59:52.092Z,16.85
2017-06-16T14:01:01.054Z,16.89
2017-06-16T14:02:10.009Z,16.93
2017-06-16T14:03:19.014Z,16.94
2017-06-16T14:04:27.971Z,16.91
2017-06-16T14:05:36.921Z,16.85
2017-06-16T14:06:45.875Z,16.91
2017-06-16T14:07:54.830Z,16.89
2017-06-16T14:09:03.828Z,16.85
2017-06-16T14:10:12.785Z,16.85
2017-06-16T14:11:22.081Z,16.83
2017-06-16T14:12:31.034Z,16.89
2017-06-16T14:13:39.990Z,16.85
2017-06-16T14:14:48.999Z,16.86
2017-06-16T14:15:58.038Z,16.83
2017-06-16T14:17:07.000Z,16.89
2017-06-16T14:18:15.955Z,16.94
2017-06-16T14:19:24.907Z,16.91
2017-06-16T14:20:34.235Z,16.97
2017-06-16T14:21:43.188Z,17.11
2017-06-16T14:22:52.160Z,17.06
2017-06-16T14:24:01.118Z,17.15
2017-06-16T14:25:10.069Z,17.19
2017-06-16T14:26:19.073Z,17.21
2017-06-16T14:27:28.023Z,17.25
2017-06-16T14:28:36.978Z,17.22
2017-06-16T14:29:45.933Z,17.25
2017-06-16T14:30:54.888Z,17.25
2017-06-16T14:32:03.850Z,17.3
2017-06-16T14:33:12.804Z,17.43
2017-06-16T14:34:22.103Z,17.41
2017-06-16T14:35:31.056Z,17.38
2017-06-16T14:36:40.008Z,17.34
2017-06-16T14:37:49.016Z,17.33
2017-06-16T14:38:57.970Z,17.3
2017-06-16T14:40:07.014Z,17.3
2017-06-16T14:41:15.970Z,17.28
2017-06-16T14:42:24.923Z,17.19
2017-06-16T14:43:33.873Z,17.3
2017-06-16T14:44:42.828Z,17.08
2017-06-16T14:45:51.783Z,17.18
2017-06-16T14:47:01.059Z,17.07
2017-06-16T14:48:10.020Z,16.97
2017-06-16T14:49:19.202Z,16.97
2017-06-16T14:50:28.164Z,17
2017-06-16T14:51:37.118Z,16.93